Terminal Aerodrome Forecast
Issued by NWS Wilmington, NC

Home | Current Version | Previous Version | Text Only | Print | Product List | Glossary On
Versions: 1 2 3 4 5 6 7 8 9 10 11 12 13 14 15 16 17 18 19 20 21 22 23 24 25 26 27 28 29 30
182
FTUS42 KILM 051726 CCA
TAFMYR
TAF COR
KMYR 051726Z 0518/0618 35010G22KT P6SM BKN035
     FM060000 02007KT P6SM SKC
     FM061400 02011KT P6SM SCT250=

USA.gov is the U.S. government's official web portal to all federal, state and local government web resources and services.